Time;durP1;ratioP1;P1;durP2;ratioP2;P2;SDS_P1;SDS_P2;PMS_P1;PMS_P2;Temp;Humidity;BMP_temperature;BMP_pressure;BME280_temperature;BME280_humidity;BME280_pressure;Samples;Min_cycle;Max_cycle;Signal;HPM_P1;HPM_P2
2021/12/20 00:00:14;;;;;;;9.73;7.35;;;;;;;;;;10451313;28;20351;-77
2021/12/20 00:05:15;;;;;;;11.90;7.32;;;;;;;;;;10458030;28;20028;-78
2021/12/20 00:10:16;;;;;;;8.80;6.93;;;;;;;;;;10456402;28;20461;-76
2021/12/20 00:15:18;;;;;;;9.43;7.55;;;;;;;;;;10457950;28;20044;-76
2021/12/20 00:20:19;;;;;;;8.55;6.88;;;;;;;;;;10457322;28;20040;-75
2021/12/20 00:25:20;;;;;;;8.38;7.30;;;;;;;;;;10456268;28;20036;-76
2021/12/20 00:30:22;;;;;;;11.88;7.05;;;;;;;;;;10457178;28;20451;-76
2021/12/20 00:35:25;;;;;;;9.15;7.20;;;;;;;;;;10457137;28;20028;-77
2021/12/20 00:40:25;;;;;;;11.25;6.60;;;;;;;;;;10456719;28;20025;-76
2021/12/20 00:45:28;;;;;;;11.40;7.47;;;;;;;;;;10456448;28;20473;-76
2021/12/20 00:50:29;;;;;;;9.50;7.25;;;;;;;;;;10455888;28;20044;-76
2021/12/20 00:55:29;;;;;;;11.45;7.35;;;;;;;;;;10456166;28;20029;-77
2021/12/20 01:00:34;;;;;;;9.18;6.70;;;;;;;;;;10438560;28;20037;-76
2021/12/20 01:05:35;;;;;;;9.65;6.47;;;;;;;;;;10456627;28;20470;-77
2021/12/20 01:10:40;;;;;;;7.40;6.60;;;;;;;;;;10415667;28;20068;-76
2021/12/20 01:15:46;;;;;;;9.68;6.65;;;;;;;;;;10439742;28;20118;-76
2021/12/20 01:20:47;;;;;;;8.98;6.45;;;;;;;;;;10455329;28;20132;-76
2021/12/20 01:25:47;;;;;;;12.70;6.68;;;;;;;;;;10455968;28;20538;-77
2021/12/20 01:30:48;;;;;;;11.27;7.28;;;;;;;;;;10456019;28;20474;-77
2021/12/20 01:35:48;;;;;;;7.75;6.80;;;;;;;;;;10428142;28;20048;-76
2021/12/20 01:40:49;;;;;;;9.40;6.67;;;;;;;;;;10435321;28;20031;-76
2021/12/20 01:45:50;;;;;;;7.95;6.32;;;;;;;;;;10462746;28;20473;-77
2021/12/20 01:56:07;;;;;;;7.47;6.30;;;;;;;;;;10463214;28;20029;-76
2021/12/20 02:06:50;;;;;;;7.77;6.57;;;;;;;;;;10462876;28;20120;-75
2021/12/20 02:11:32;;;;;;;9.23;6.57;;;;;;;;;;10451187;28;20477;-76
2021/12/20 02:16:34;;;;;;;9.88;6.72;;;;;;;;;;10444305;28;20067;-75
2021/12/20 02:21:34;;;;;;;7.82;6.60;;;;;;;;;;10462083;28;20136;-77
2021/12/20 02:26:36;;;;;;;9.48;6.30;;;;;;;;;;10461918;28;20424;-76
2021/12/20 02:37:13;;;;;;;8.43;6.57;;;;;;;;;;10460964;28;20386;-74
2021/12/20 02:42:18;;;;;;;12.30;6.68;;;;;;;;;;10445698;28;20033;-77
2021/12/20 02:47:28;;;;;;;7.57;6.30;;;;;;;;;;10460531;28;20051;-76
2021/12/20 02:52:29;;;;;;;9.27;6.35;;;;;;;;;;10458055;28;20032;-76
2021/12/20 02:57:29;;;;;;;8.07;6.30;;;;;;;;;;10460305;28;20040;-78
2021/12/20 03:02:30;;;;;;;6.80;5.95;;;;;;;;;;10459739;28;20024;-80
2021/12/20 03:07:38;;;;;;;7.75;6.10;;;;;;;;;;10459923;28;20040;-76
2021/12/20 03:12:39;;;;;;;7.55;6.20;;;;;;;;;;10459826;28;20025;-76
2021/12/20 03:17:40;;;;;;;6.93;6.17;;;;;;;;;;10459857;28;20048;-76
2021/12/20 03:22:41;;;;;;;7.18;6.32;;;;;;;;;;10458921;28;20934;-74
2021/12/20 03:27:42;;;;;;;7.82;6.68;;;;;;;;;;10456212;28;20044;-75
2021/12/20 03:32:42;;;;;;;8.50;6.68;;;;;;;;;;10458943;28;20410;-75
2021/12/20 03:37:43;;;;;;;6.40;5.80;;;;;;;;;;10458497;28;20033;-76
2021/12/20 03:42:45;;;;;;;6.85;6.15;;;;;;;;;;10458400;28;20102;-76
2021/12/20 03:47:46;;;;;;;7.28;6.47;;;;;;;;;;10458810;28;20029;-76
2021/12/20 03:52:46;;;;;;;8.13;6.13;;;;;;;;;;10457321;28;20390;-76
2021/12/20 03:57:47;;;;;;;7.20;6.43;;;;;;;;;;10457365;28;20374;-76
2021/12/20 04:02:48;;;;;;;7.13;6.43;;;;;;;;;;10457164;28;20446;-75
2021/12/20 04:07:48;;;;;;;7.07;6.15;;;;;;;;;;10458052;28;20048;-77
2021/12/20 04:12:49;;;;;;;6.30;5.70;;;;;;;;;;10457392;28;20537;-76
2021/12/20 04:17:49;;;;;;;6.60;5.77;;;;;;;;;;10457302;28;20446;-76
2021/12/20 04:22:49;;;;;;;10.20;6.22;;;;;;;;;;10455986;28;20562;-76
2021/12/20 04:27:50;;;;;;;6.67;5.77;;;;;;;;;;10456492;28;20379;-75
2021/12/20 04:32:50;;;;;;;9.17;5.73;;;;;;;;;;10456133;28;20470;-76
2021/12/20 04:37:52;;;;;;;7.53;5.97;;;;;;;;;;10455740;28;20048;-75
2021/12/20 04:43:01;;;;;;;9.02;5.85;;;;;;;;;;10456012;28;20544;-76
2021/12/20 04:48:03;;;;;;;6.68;5.82;;;;;;;;;;10456208;28;20115;-75
2021/12/20 04:53:04;;;;;;;6.32;5.72;;;;;;;;;;10456421;28;20036;-76
2021/12/20 04:58:06;;;;;;;6.45;5.47;;;;;;;;;;10454512;28;20041;-76
2021/12/20 05:03:08;;;;;;;7.13;5.93;;;;;;;;;;10456169;28;20375;-76
2021/12/20 05:08:10;;;;;;;7.75;5.82;;;;;;;;;;10454911;28;20060;-76
2021/12/20 05:13:12;;;;;;;7.68;6.07;;;;;;;;;;10455488;28;20041;-76
2021/12/20 05:18:12;;;;;;;6.10;5.50;;;;;;;;;;10463083;28;20035;-78
2021/12/20 05:23:12;;;;;;;6.70;6.00;;;;;;;;;;10463526;28;20068;-76
2021/12/20 05:28:13;;;;;;;7.97;6.40;;;;;;;;;;10463451;28;20442;-76
2021/12/20 05:33:13;;;;;;;6.78;5.80;;;;;;;;;;10444941;28;20450;-76
2021/12/20 05:38:14;;;;;;;7.13;5.80;;;;;;;;;;10463626;28;20029;-75
2021/12/20 05:43:14;;;;;;;6.45;5.80;;;;;;;;;;10462837;28;20469;-75
2021/12/20 05:48:14;;;;;;;6.63;5.97;;;;;;;;;;10463095;28;20091;-76
2021/12/20 05:53:15;;;;;;;8.20;6.40;;;;;;;;;;10461718;28;20462;-76
2021/12/20 05:58:15;;;;;;;7.07;5.80;;;;;;;;;;10462613;28;20497;-77
2021/12/20 06:03:15;;;;;;;6.23;5.63;;;;;;;;;;10444946;28;20450;-77
2021/12/20 06:08:16;;;;;;;9.00;8.10;;;;;;;;;;10443835;28;21028;-76
2021/12/20 06:13:16;;;;;;;8.88;7.97;;;;;;;;;;10461485;28;20033;-75
2021/12/20 06:18:17;;;;;;;14.17;12.70;;;;;;;;;;10461353;28;20056;-77
2021/12/20 06:23:17;;;;;;;14.40;13.27;;;;;;;;;;10443664;28;20990;-76
2021/12/20 06:28:18;;;;;;;11.73;10.75;;;;;;;;;;10459715;28;20378;-78
2021/12/20 06:33:18;;;;;;;8.82;7.75;;;;;;;;;;10460365;28;20075;-75
2021/12/20 06:38:20;;;;;;;8.80;7.72;;;;;;;;;;10460871;28;20443;-77
2021/12/20 06:43:21;;;;;;;7.65;6.95;;;;;;;;;;10460974;28;20033;-77
2021/12/20 06:48:21;;;;;;;8.32;6.85;;;;;;;;;;10461244;28;20147;-76
2021/12/20 06:53:22;;;;;;;8.17;7.17;;;;;;;;;;10459824;28;20025;-76
2021/12/20 06:58:23;;;;;;;11.18;7.63;;;;;;;;;;10459721;28;20450;-77
2021/12/20 07:03:24;;;;;;;8.60;7.05;;;;;;;;;;10456022;28;20024;-77
2021/12/20 07:08:24;;;;;;;9.18;7.43;;;;;;;;;;10444719;28;20041;-76
2021/12/20 07:13:24;;;;;;;8.67;7.77;;;;;;;;;;10447634;28;20474;-76
2021/12/20 07:18:25;;;;;;;8.00;7.20;;;;;;;;;;10433668;28;20460;-76
2021/12/20 07:23:25;;;;;;;12.50;8.20;;;;;;;;;;10419476;28;20118;-76
2021/12/20 07:28:26;;;;;;;16.77;8.45;;;;;;;;;;10418515;28;20456;-77
2021/12/20 07:33:26;;;;;;;15.15;8.65;;;;;;;;;;10426171;28;20029;-76
2021/12/20 07:38:27;;;;;;;15.77;8.23;;;;;;;;;;10439022;28;20421;-77
2021/12/20 07:43:28;;;;;;;10.70;8.27;;;;;;;;;;10459092;28;20028;-79
2021/12/20 07:48:28;;;;;;;10.52;8.40;;;;;;;;;;10459638;28;20031;-76
2021/12/20 07:53:28;;;;;;;14.90;9.20;;;;;;;;;;10441049;28;20040;-76
2021/12/20 07:58:29;;;;;;;19.50;8.87;;;;;;;;;;10458450;28;20037;-77
2021/12/20 08:03:30;;;;;;;11.40;6.90;;;;;;;;;;10458281;28;21037;-76
2021/12/20 08:08:30;;;;;;;8.65;7.30;;;;;;;;;;10458122;28;20119;-76
2021/12/20 08:13:31;;;;;;;9.43;7.05;;;;;;;;;;10458075;28;20036;-76
2021/12/20 08:18:31;;;;;;;13.82;7.60;;;;;;;;;;10457367;28;20501;-76
2021/12/20 08:23:32;;;;;;;9.67;6.70;;;;;;;;;;10421069;23;20073;-76
2021/12/20 08:28:34;;;;;;;10.45;7.20;;;;;;;;;;10374548;28;20550;-76
2021/12/20 08:33:35;;;;;;;8.85;7.28;;;;;;;;;;10375908;28;20037;-79
2021/12/20 08:38:36;;;;;;;9.10;7.13;;;;;;;;;;10375739;28;20383;-77
2021/12/20 08:43:37;;;;;;;8.70;7.10;;;;;;;;;;10375452;28;20038;-76
2021/12/20 08:48:37;;;;;;;9.10;6.93;;;;;;;;;;10375130;28;20598;-76
2021/12/20 08:53:39;;;;;;;9.17;7.77;;;;;;;;;;10374939;28;20040;-76
2021/12/20 08:58:40;;;;;;;11.05;7.00;;;;;;;;;;10374776;28;20853;-77
2021/12/20 09:03:41;;;;;;;8.57;7.45;;;;;;;;;;10374798;28;20128;-78
2021/12/20 09:08:42;;;;;;;10.05;7.43;;;;;;;;;;10375072;28;20548;-76
2021/12/20 09:13:43;;;;;;;9.70;6.90;;;;;;;;;;10374001;28;20062;-76
2021/12/20 09:18:43;;;;;;;8.85;6.72;;;;;;;;;;10374564;28;20037;-77
2021/12/20 09:23:44;;;;;;;14.30;6.50;;;;;;;;;;10374018;28;20443;-77
2021/12/20 09:28:44;;;;;;;11.88;6.90;;;;;;;;;;10373669;28;20034;-76
2021/12/20 09:33:45;;;;;;;9.50;6.38;;;;;;;;;;10374454;28;20037;-76
2021/12/20 09:38:46;;;;;;;8.43;6.43;;;;;;;;;;10373564;28;20033;-80
2021/12/20 09:43:49;;;;;;;10.85;6.60;;;;;;;;;;10374763;28;20424;-77
2021/12/20 09:48:49;;;;;;;9.80;6.95;;;;;;;;;;10373306;28;20037;-76
2021/12/20 09:53:51;;;;;;;10.18;7.13;;;;;;;;;;10373634;28;20037;-76
2021/12/20 09:58:53;;;;;;;9.82;7.35;;;;;;;;;;10373710;28;20034;-76
2021/12/20 10:03:56;;;;;;;7.75;6.57;;;;;;;;;;10378946;28;20026;-77
2021/12/20 10:09:03;;;;;;;12.13;6.72;;;;;;;;;;10381195;28;20060;-77
2021/12/20 10:14:12;;;;;;;10.02;6.85;;;;;;;;;;10380884;28;20033;-76
2021/12/20 10:19:29;;;;;;;11.20;6.50;;;;;;;;;;10380913;28;20033;-78
2021/12/20 10:24:35;;;;;;;7.97;6.15;;;;;;;;;;10381313;28;20507;-76
2021/12/20 10:29:37;;;;;;;10.80;6.43;;;;;;;;;;10379669;28;20041;-76
2021/12/20 10:34:37;;;;;;;8.48;6.10;;;;;;;;;;10380438;28;20438;-77
2021/12/20 10:39:47;;;;;;;9.63;6.33;;;;;;;;;;10379583;28;20168;-78
2021/12/20 10:45:11;;;;;;;9.88;6.55;;;;;;;;;;10379218;28;20412;-78
2021/12/20 10:50:31;;;;;;;7.75;6.53;;;;;;;;;;10379906;28;20041;-77
2021/12/20 10:55:37;;;;;;;8.77;6.85;;;;;;;;;;10379493;28;20026;-77
2021/12/20 11:00:39;;;;;;;9.43;6.68;;;;;;;;;;10362126;28;20033;-79
2021/12/20 11:06:11;;;;;;;9.27;6.63;;;;;;;;;;10379298;28;20487;-77
2021/12/20 11:11:11;;;;;;;11.70;6.88;;;;;;;;;;10378190;28;20144;-76
2021/12/20 11:16:27;;;;;;;9.75;6.93;;;;;;;;;;10378892;28;20033;-77
2021/12/20 11:21:28;;;;;;;11.48;7.45;;;;;;;;;;10378273;28;20052;-75
2021/12/20 11:26:28;;;;;;;9.53;7.00;;;;;;;;;;10378176;28;20361;-77
2021/12/20 11:31:29;;;;;;;9.20;6.63;;;;;;;;;;10377861;28;20428;-76
2021/12/20 11:36:29;;;;;;;9.43;6.67;;;;;;;;;;10360009;28;20022;-77
2021/12/20 11:41:30;;;;;;;9.40;7.30;;;;;;;;;;10377606;28;20448;-78
2021/12/20 11:47:08;;;;;;;10.82;6.82;;;;;;;;;;10377530;28;20513;-77
2021/12/20 11:52:19;;;;;;;12.48;7.55;;;;;;;;;;10377429;28;20521;-77
2021/12/20 11:57:29;;;;;;;9.98;7.43;;;;;;;;;;10376296;28;20032;-77
2021/12/20 12:02:31;;;;;;;7.60;6.40;;;;;;;;;;10375980;28;20053;-80
2021/12/20 12:07:36;;;;;;;8.55;6.78;;;;;;;;;;10376184;28;20044;-77
2021/12/20 12:12:41;;;;;;;7.85;6.30;;;;;;;;;;10376658;28;20041;-76
2021/12/20 12:17:59;;;;;;;9.15;6.78;;;;;;;;;;10377120;28;20069;-78
2021/12/20 12:23:14;;;;;;;9.00;6.80;;;;;;;;;;10376331;28;20046;-79
2021/12/20 12:28:15;;;;;;;7.53;6.35;;;;;;;;;;10376557;28;20033;-79
2021/12/20 12:33:15;;;;;;;9.25;6.40;;;;;;;;;;10376514;28;20026;-80
2021/12/20 12:38:18;;;;;;;8.27;6.38;;;;;;;;;;10374883;28;20418;-76
2021/12/20 12:43:26;;;;;;;8.80;6.43;;;;;;;;;;10374744;28;20045;-76
2021/12/20 12:48:35;;;;;;;7.40;6.43;;;;;;;;;;10358182;28;20037;-76
2021/12/20 12:53:40;;;;;;;9.68;5.55;;;;;;;;;;10375513;28;20034;-76
2021/12/20 12:58:40;;;;;;;7.40;6.60;;;;;;;;;;10374334;28;20025;-76
2021/12/20 13:03:47;;;;;;;10.17;6.13;;;;;;;;;;10373481;28;20038;-76
2021/12/20 13:08:54;;;;;;;8.32;5.97;;;;;;;;;;10374666;28;20422;-76
2021/12/20 13:14:17;;;;;;;7.32;5.80;;;;;;;;;;10374086;28;20022;-76
2021/12/20 13:19:32;;;;;;;7.70;6.00;;;;;;;;;;10374263;28;20037;-76
2021/12/20 13:24:33;;;;;;;7.90;5.68;;;;;;;;;;10374269;28;20046;-76
2021/12/20 13:29:34;;;;;;;11.70;5.90;;;;;;;;;;10373851;28;20109;-77
2021/12/20 13:34:35;;;;;;;8.80;6.03;;;;;;;;;;10348153;28;20419;-76
2021/12/20 13:39:35;;;;;;;8.90;5.40;;;;;;;;;;10341500;28;20109;-81
2021/12/20 13:44:37;;;;;;;17.30;5.47;;;;;;;;;;10341864;28;20033;-76
2021/12/20 13:49:38;;;;;;;13.25;5.97;;;;;;;;;;10341768;28;20049;-77
2021/12/20 13:54:39;;;;;;;9.50;5.55;;;;;;;;;;10341034;28;20041;-76
2021/12/20 13:59:49;;;;;;;13.02;6.20;;;;;;;;;;10340962;28;20038;-78
2021/12/20 14:04:51;;;;;;;12.15;5.85;;;;;;;;;;10346942;28;20037;-74
2021/12/20 14:10:03;;;;;;;10.02;5.53;;;;;;;;;;10380212;28;20041;-77
2021/12/20 14:15:06;;;;;;;8.13;5.40;;;;;;;;;;10380475;28;20121;-78
2021/12/20 14:20:07;;;;;;;10.93;5.63;;;;;;;;;;10379723;28;20042;-77
2021/12/20 14:25:08;;;;;;;8.20;5.40;;;;;;;;;;10381139;28;20049;-78
2021/12/20 14:30:22;;;;;;;9.85;5.05;;;;;;;;;;10379685;28;20464;-77
2021/12/20 14:35:27;;;;;;;7.60;5.13;;;;;;;;;;10380334;28;20030;-77
2021/12/20 14:40:48;;;;;;;9.60;5.05;;;;;;;;;;10380166;28;20457;-79
2021/12/20 14:46:08;;;;;;;9.63;4.75;;;;;;;;;;10380164;28;20076;-77
2021/12/20 14:51:25;;;;;;;6.63;4.70;;;;;;;;;;10362132;28;20041;-77
2021/12/20 14:56:29;;;;;;;6.18;4.40;;;;;;;;;;10379101;28;20021;-77
2021/12/20 15:01:30;;;;;;;9.05;4.85;;;;;;;;;;10361518;28;20034;-77
2021/12/20 15:06:45;;;;;;;8.32;4.90;;;;;;;;;;10379381;28;20033;-77
2021/12/20 15:11:45;;;;;;;5.55;4.65;;;;;;;;;;10379657;28;20717;-78
2021/12/20 15:16:46;;;;;;;6.93;4.40;;;;;;;;;;10378286;28;20037;-76
2021/12/20 15:21:46;;;;;;;7.05;5.07;;;;;;;;;;10378819;28;20103;-78
2021/12/20 15:26:47;;;;;;;5.90;4.03;;;;;;;;;;10378733;28;20414;-78
2021/12/20 15:31:50;;;;;;;9.05;4.45;;;;;;;;;;10377652;28;20463;-80
2021/12/20 15:36:50;;;;;;;6.82;4.10;;;;;;;;;;10377496;28;20105;-78
2021/12/20 15:41:59;;;;;;;13.55;4.65;;;;;;;;;;10378094;28;20112;-77
2021/12/20 15:46:59;;;;;;;5.23;4.40;;;;;;;;;;10377880;28;20112;-77
2021/12/20 15:51:59;;;;;;;10.18;4.65;;;;;;;;;;10377599;28;20460;-77
2021/12/20 15:57:00;;;;;;;7.15;4.55;;;;;;;;;;10377044;28;20033;-79
2021/12/20 16:02:00;;;;;;;6.13;4.23;;;;;;;;;;10358444;28;20026;-77
2021/12/20 16:07:02;;;;;;;4.73;3.93;;;;;;;;;;10376985;28;20987;-79
2021/12/20 16:12:03;;;;;;;8.07;4.10;;;;;;;;;;10376134;28;20440;-78
2021/12/20 16:17:03;;;;;;;3.92;3.53;;;;;;;;;;10375855;28;20034;-77
2021/12/20 16:22:04;;;;;;;6.00;4.38;;;;;;;;;;10375791;28;20078;-77
2021/12/20 16:27:06;;;;;;;6.55;4.13;;;;;;;;;;10375897;28;20486;-78
2021/12/20 16:32:06;;;;;;;4.78;3.90;;;;;;;;;;10376026;28;20049;-77
2021/12/20 16:37:07;;;;;;;4.63;3.80;;;;;;;;;;10376351;28;20029;-79
2021/12/20 16:42:07;;;;;;;5.10;4.03;;;;;;;;;;10375618;28;20030;-76
2021/12/20 16:52:41;;;;;;;5.28;4.25;;;;;;;;;;10352686;28;20046;-76
2021/12/20 16:57:41;;;;;;;6.27;3.90;;;;;;;;;;10375406;28;20372;-79
2021/12/20 17:02:53;;;;;;;5.88;4.38;;;;;;;;;;10374749;28;20444;-77
2021/12/20 17:07:54;;;;;;;5.32;4.00;;;;;;;;;;10374730;28;20117;-78
2021/12/20 17:12:56;;;;;;;5.40;3.90;;;;;;;;;;10368924;28;20173;-78
2021/12/20 17:17:57;;;;;;;5.32;3.88;;;;;;;;;;10347758;28;20517;-77
2021/12/20 17:22:57;;;;;;;4.55;3.90;;;;;;;;;;10373994;28;20119;-78
2021/12/20 17:28:01;;;;;;;4.88;3.80;;;;;;;;;;10373360;28;20076;-79
2021/12/20 17:33:03;;;;;;;5.07;3.55;;;;;;;;;;10374511;28;20026;-80
2021/12/20 17:38:03;;;;;;;6.05;4.10;;;;;;;;;;10373409;28;20034;-77
2021/12/20 17:43:04;;;;;;;7.43;3.80;;;;;;;;;;10373572;28;20371;-77
2021/12/20 17:48:05;;;;;;;6.00;4.25;;;;;;;;;;10373921;28;20057;-76
2021/12/20 17:53:05;;;;;;;5.43;3.97;;;;;;;;;;10373298;28;20030;-77
2021/12/20 17:58:06;;;;;;;5.40;3.67;;;;;;;;;;10369645;28;20030;-79
2021/12/20 18:03:07;;;;;;;5.20;4.17;;;;;;;;;;10362929;28;20022;-77
2021/12/20 18:08:07;;;;;;;5.75;4.00;;;;;;;;;;10337674;28;20540;-77
2021/12/20 18:13:08;;;;;;;8.48;4.25;;;;;;;;;;10347368;28;20371;-77
2021/12/20 18:18:08;;;;;;;8.68;4.47;;;;;;;;;;10335126;28;20042;-77
2021/12/20 18:23:10;;;;;;;4.47;3.58;;;;;;;;;;10336195;28;20093;-77
2021/12/20 18:28:10;;;;;;;11.07;4.07;;;;;;;;;;10341546;28;20043;-76
2021/12/20 18:33:11;;;;;;;4.90;4.03;;;;;;;;;;10345894;28;20029;-76
2021/12/20 18:38:24;;;;;;;6.15;4.20;;;;;;;;;;10344887;28;21016;-77
2021/12/20 18:43:25;;;;;;;19.48;4.53;;;;;;;;;;10367766;28;20044;-77
2021/12/20 18:48:26;;;;;;;6.75;4.55;;;;;;;;;;10378775;28;20034;-76
2021/12/20 18:53:28;;;;;;;9.88;5.97;;;;;;;;;;10358344;28;20045;-76
2021/12/20 18:58:28;;;;;;;8.90;5.15;;;;;;;;;;10376456;28;20034;-76
2021/12/20 19:03:29;;;;;;;10.65;5.68;;;;;;;;;;10376154;28;20033;-76
2021/12/20 19:08:29;;;;;;;11.10;6.00;;;;;;;;;;10376847;28;20103;-75
2021/12/20 19:13:33;;;;;;;13.77;6.47;;;;;;;;;;10378700;28;20435;-77
2021/12/20 19:18:34;;;;;;;11.63;6.40;;;;;;;;;;10377305;28;20048;-76
2021/12/20 19:23:35;;;;;;;14.43;6.00;;;;;;;;;;10377990;28;20061;-76
2021/12/20 19:28:35;;;;;;;9.80;5.93;;;;;;;;;;10370244;28;20469;-75
2021/12/20 19:33:36;;;;;;;11.57;5.47;;;;;;;;;;10389657;28;20038;-77
2021/12/20 19:38:38;;;;;;;8.90;5.75;;;;;;;;;;10367382;28;20068;-77
2021/12/20 19:43:38;;;;;;;14.20;6.30;;;;;;;;;;10377785;28;20030;-78
2021/12/20 19:48:38;;;;;;;9.75;6.25;;;;;;;;;;10377180;28;20124;-78
2021/12/20 19:53:39;;;;;;;22.00;7.35;;;;;;;;;;10377949;28;20129;-79
2021/12/20 19:58:39;;;;;;;19.77;6.95;;;;;;;;;;10375435;28;20129;-76
2021/12/20 20:03:40;;;;;;;17.70;6.43;;;;;;;;;;10372527;28;20034;-78
2021/12/20 20:08:41;;;;;;;17.25;7.05;;;;;;;;;;10375953;28;20483;-78
2021/12/20 20:13:41;;;;;;;14.90;6.45;;;;;;;;;;10376113;28;20431;-78
2021/12/20 20:18:43;;;;;;;15.27;7.43;;;;;;;;;;10375899;28;20367;-79
2021/12/20 20:23:44;;;;;;;17.35;7.63;;;;;;;;;;10398554;23;20059;-81
2021/12/20 20:28:47;;;;;;;11.32;6.00;;;;;;;;;;10316742;28;20039;-81
2021/12/20 20:33:48;;;;;;;17.02;6.30;;;;;;;;;;10322887;28;20046;-81
2021/12/20 20:38:49;;;;;;;10.50;5.78;;;;;;;;;;10293761;28;20035;-82
2021/12/20 20:43:51;;;;;;;14.48;6.20;;;;;;;;;;10317027;28;20444;-82
2021/12/20 20:48:54;;;;;;;11.30;6.40;;;;;;;;;;10333515;28;20070;-81
2021/12/20 20:53:56;;;;;;;14.25;6.68;;;;;;;;;;10334081;28;20034;-81
2021/12/20 20:58:59;;;;;;;15.73;6.32;;;;;;;;;;10348914;28;20034;-82
2021/12/20 21:04:14;;;;;;;13.60;6.05;;;;;;;;;;10332535;28;20046;-82
2021/12/20 21:09:16;;;;;;;13.98;6.72;;;;;;;;;;10333679;28;20054;-82
2021/12/20 21:14:17;;;;;;;10.65;5.63;;;;;;;;;;10332161;28;20107;-83
2021/12/20 21:19:18;;;;;;;10.48;5.82;;;;;;;;;;10328367;28;20080;-83
2021/12/20 21:24:21;;;;;;;13.27;6.47;;;;;;;;;;10334044;28;20456;-83
2021/12/20 21:29:21;;;;;;;11.27;5.93;;;;;;;;;;10336586;28;20030;-82
2021/12/20 21:34:23;;;;;;;11.25;5.93;;;;;;;;;;10347418;28;20442;-83
2021/12/20 21:39:24;;;;;;;9.65;6.07;;;;;;;;;;10346077;28;20081;-84
2021/12/20 21:44:24;;;;;;;11.93;7.00;;;;;;;;;;10348153;28;20039;-83
2021/12/20 21:49:24;;;;;;;9.48;5.50;;;;;;;;;;10346233;28;20026;-83
2021/12/20 21:54:25;;;;;;;9.95;5.90;;;;;;;;;;10329917;28;20049;-83
2021/12/20 21:59:26;;;;;;;18.13;6.03;;;;;;;;;;10308097;28;20027;-83
2021/12/20 22:04:26;;;;;;;13.55;6.05;;;;;;;;;;10325710;28;20034;-84
2021/12/20 22:09:26;;;;;;;15.23;6.43;;;;;;;;;;10331108;28;20034;-83
2021/12/20 22:14:27;;;;;;;10.30;6.70;;;;;;;;;;10355761;28;20041;-83
2021/12/20 22:19:28;;;;;;;9.13;5.93;;;;;;;;;;10339401;28;20483;-83
2021/12/20 22:24:28;;;;;;;11.05;6.15;;;;;;;;;;10349999;28;20495;-82
2021/12/20 22:29:29;;;;;;;17.97;6.63;;;;;;;;;;10335665;28;20060;-82
2021/12/20 22:34:32;;;;;;;14.35;6.20;;;;;;;;;;10327770;28;20444;-84
2021/12/20 22:39:33;;;;;;;22.95;6.30;;;;;;;;;;10339181;28;20037;-79
2021/12/20 22:44:34;;;;;;;14.75;6.47;;;;;;;;;;10334950;28;20025;-78
2021/12/20 22:49:34;;;;;;;15.57;6.93;;;;;;;;;;10336277;28;20388;-80
2021/12/20 22:54:35;;;;;;;13.52;6.78;;;;;;;;;;10334993;28;21749;-79
2021/12/20 22:59:36;;;;;;;13.32;6.70;;;;;;;;;;10329516;28;20472;-79
2021/12/20 23:04:36;;;;;;;15.02;6.45;;;;;;;;;;10313671;28;20054;-78
2021/12/20 23:09:41;;;;;;;8.50;6.00;;;;;;;;;;10334747;28;20054;-79
2021/12/20 23:14:42;;;;;;;9.00;6.05;;;;;;;;;;10328717;28;20121;-79
2021/12/20 23:19:43;;;;;;;9.40;5.80;;;;;;;;;;10337808;28;20444;-80
2021/12/20 23:24:43;;;;;;;8.95;6.10;;;;;;;;;;10332092;28;20411;-80
2021/12/20 23:29:43;;;;;;;14.03;6.53;;;;;;;;;;10335096;28;20431;-81
2021/12/20 23:34:44;;;;;;;9.77;6.33;;;;;;;;;;10330508;28;20579;-81
2021/12/20 23:39:53;;;;;;;13.57;6.30;;;;;;;;;;10330038;28;20464;-80
2021/12/20 23:44:53;;;;;;;;;;;;;;;;;;10335393;28;20026;-82
2021/12/20 23:49:53;;;;;;;14.75;6.13;;;;;;;;;;10348951;28;20363;-81
2021/12/20 23:54:54;;;;;;;16.70;6.13;;;;;;;;;;10334038;28;20022;-80
2021/12/20 23:59:54;;;;;;;11.43;6.50;;;;;;;;;;10333343;28;21003;-80
